Time;durP1;ratioP1;P1;durP2;ratioP2;P2;SDS_P1;SDS_P2;PMS_P1;PMS_P2;Temp;Humidity;BMP_temperature;BMP_pressure;BME280_temperature;BME280_humidity;BME280_pressure;Samples;Min_cycle;Max_cycle;Signal;HPM_P1;HPM_P2
2024/02/16 00:00:31;;;;;;;320.60;77.60;;;;;3.80;97170.00;;;;5062072;28;20935;-89
2024/02/16 00:03:20;;;;;;;312.57;75.30;;;;;4.10;97171.00;;;;5064319;28;20449;-87
2024/02/16 00:06:09;;;;;;;322.97;76.37;;;;;3.90;97171.00;;;;5063066;28;20430;-86
2024/02/16 00:08:58;;;;;;;328.10;85.33;;;;;4.50;97172.00;;;;5064596;28;20438;-86
2024/02/16 00:11:48;;;;;;;327.63;91.73;;;;;4.70;97175.00;;;;5064842;28;20439;-87
2024/02/16 00:14:37;;;;;;;324.83;90.77;;;;;4.60;97165.00;;;;5058745;28;20646;-87
2024/02/16 00:17:28;;;;;;;318.90;71.10;;;;;4.10;97171.00;;;;5062878;28;20422;-86
2024/02/16 00:20:19;;;;;;;311.00;75.93;;;;;4.00;97170.00;;;;5067992;28;20430;-86
2024/02/16 00:23:08;;;;;;;305.83;72.47;;;;;4.40;97177.00;;;;5065422;28;20453;-88
2024/02/16 00:25:57;;;;;;;317.47;78.57;;;;;4.30;97171.00;;;;5062496;28;20788;-88
2024/02/16 00:28:46;;;;;;;307.47;72.83;;;;;4.20;97171.00;;;;5059472;28;20697;-87
2024/02/16 00:31:35;;;;;;;307.37;72.17;;;;;4.00;97164.00;;;;5061454;28;20895;-86
2024/02/16 00:34:26;;;;;;;314.87;72.60;;;;;3.80;97180.00;;;;5062820;28;20427;-86
2024/02/16 00:37:15;;;;;;;315.60;76.30;;;;;3.60;97166.00;;;;5066134;28;20886;-88
2024/02/16 00:40:06;;;;;;;319.00;78.10;;;;;3.60;97163.00;;;;5058888;28;20419;-88
2024/02/16 00:42:55;;;;;;;318.53;77.50;;;;;3.80;97176.00;;;;5062734;28;20451;-87
2024/02/16 00:45:44;;;;;;;315.67;75.17;;;;;3.70;97159.00;;;;5058734;28;20415;-87
2024/02/16 00:48:34;;;;;;;312.80;74.23;;;;;3.80;97160.00;;;;5060794;28;20702;-85
2024/02/16 00:51:25;;;;;;;309.53;70.03;;;;;3.80;97157.00;;;;5065856;28;20446;-86
2024/02/16 00:54:15;;;;;;;309.33;73.70;;;;;3.50;97151.00;;;;5062822;28;20458;-87
2024/02/16 00:57:04;;;;;;;321.50;78.73;;;;;3.20;97136.00;;;;5063190;28;20641;-87
2024/02/16 00:59:54;;;;;;;318.87;75.40;;;;;2.90;97144.00;;;;5063834;28;20430;-85
2024/02/16 01:02:43;;;;;;;310.13;71.83;;;;;3.10;97148.00;;;;5060252;28;20982;-85
2024/02/16 01:05:33;;;;;;;310.57;70.73;;;;;3.90;97157.00;;;;5060328;28;20428;-87
2024/02/16 01:08:23;;;;;;;316.93;72.70;;;;;3.40;97150.00;;;;5058040;28;20421;-85
2024/02/16 01:11:12;;;;;;;312.60;70.43;;;;;2.80;97146.00;;;;5062701;28;20977;-87
2024/02/16 01:14:02;;;;;;;324.93;77.67;;;;;2.80;97151.00;;;;5062466;28;20446;-86
2024/02/16 01:16:51;;;;;;;317.03;73.73;;;;;3.00;97161.00;;;;5063151;28;20995;-85
2024/02/16 01:19:41;;;;;;;312.60;69.53;;;;;3.10;97158.00;;;;5059932;28;20431;-87
2024/02/16 01:22:30;;;;;;;309.83;69.00;;;;;3.20;97155.00;;;;5064505;28;20449;-86
2024/02/16 01:25:21;;;;;;;317.47;72.07;;;;;3.40;97153.00;;;;5060442;28;20958;-86
2024/02/16 01:28:12;;;;;;;320.57;72.30;;;;;3.50;97155.00;;;;5063930;28;20426;-87
2024/02/16 01:31:01;;;;;;;330.47;76.50;;;;;3.40;97150.00;;;;5064509;28;20577;-87
2024/02/16 01:33:50;;;;;;;327.97;74.67;;;;;3.60;97151.00;;;;5063975;28;20442;-86
2024/02/16 01:36:39;;;;;;;319.87;70.30;;;;;3.70;97157.00;;;;5065606;28;20454;-87
2024/02/16 01:39:28;;;;;;;321.47;71.77;;;;;3.60;97146.00;;;;5064772;28;20442;-86
2024/02/16 01:42:19;;;;;;;320.30;71.10;;;;;3.10;97147.00;;;;5067438;28;20470;-87
2024/02/16 01:45:10;;;;;;;326.53;74.47;;;;;2.80;97146.00;;;;5059201;28;20865;-86
2024/02/16 01:48:00;;;;;;;325.97;73.17;;;;;2.60;97140.00;;;;5060506;28;20709;-87
2024/02/16 01:50:50;;;;;;;317.87;69.83;;;;;2.80;97142.00;;;;5060502;28;20474;-90
2024/02/16 01:53:40;;;;;;;319.50;76.43;;;;;2.80;97147.00;;;;5057452;28;20427;-86
2024/02/16 01:56:29;;;;;;;303.97;102.10;;;;;2.70;97139.00;;;;5065913;28;20458;-87
2024/02/16 01:59:20;;;;;;;284.27;71.83;;;;;2.70;97146.00;;;;5066430;28;20426;-87
2024/02/16 02:02:09;;;;;;;285.80;75.50;;;;;3.00;97139.00;;;;5065438;28;20477;-87
2024/02/16 02:04:58;;;;;;;273.30;72.10;;;;;3.10;97143.00;;;;5062115;28;20428;-87
2024/02/16 02:07:47;;;;;;;270.17;69.17;;;;;3.30;97154.00;;;;5069624;28;20427;-88
2024/02/16 02:10:36;;;;;;;276.37;69.73;;;;;3.60;97145.00;;;;5064497;28;20437;-86
2024/02/16 02:13:26;;;;;;;267.93;73.10;;;;;3.50;97144.00;;;;5068017;28;20441;-88
2024/02/16 02:16:17;;;;;;;276.40;72.17;;;;;3.50;97137.00;;;;5062028;28;20481;-87
2024/02/16 02:19:06;;;;;;;292.43;77.70;;;;;3.20;97132.00;;;;5069670;28;20418;-86
2024/02/16 02:21:55;;;;;;;293.50;74.70;;;;;3.10;97131.00;;;;5067942;28;20874;-88
2024/02/16 02:24:46;;;;;;;280.60;70.10;;;;;3.10;97128.00;;;;5064604;28;20439;-86
2024/02/16 02:27:35;;;;;;;279.63;71.47;;;;;3.20;97127.00;;;;5066266;28;20418;-85
2024/02/16 02:30:24;;;;;;;270.77;69.00;;;;;2.80;97120.00;;;;5069160;28;20444;-87
2024/02/16 02:33:14;;;;;;;277.50;70.10;;;;;2.70;97128.00;;;;5061391;28;20459;-87
2024/02/16 02:36:04;;;;;;;281.57;75.03;;;;;2.80;97125.00;;;;5065403;28;20432;-87
2024/02/16 02:38:53;;;;;;;277.13;71.73;;;;;2.80;97119.00;;;;5066071;28;20438;-86
2024/02/16 02:41:44;;;;;;;281.30;71.20;;;;;3.10;97118.00;;;;5065812;28;20453;-86
2024/02/16 02:44:33;;;;;;;272.90;70.33;;;;;3.20;97122.00;;;;5060335;28;20435;-87
2024/02/16 02:47:22;;;;;;;278.30;70.17;;;;;3.00;97116.00;;;;5068826;28;20545;-87
2024/02/16 02:50:11;;;;;;;278.97;70.57;;;;;3.10;97109.00;;;;5070092;28;20439;-86
2024/02/16 02:53:00;;;;;;;286.23;73.33;;;;;3.30;97115.00;;;;5063343;28;20455;-87
2024/02/16 02:55:50;;;;;;;284.90;70.33;;;;;3.40;97111.00;;;;5068271;28;20935;-86
2024/02/16 02:58:42;;;;;;;286.47;73.80;;;;;3.30;97122.00;;;;5067861;28;20473;-88
2024/02/16 03:01:31;;;;;;;278.60;68.77;;;;;3.10;97105.00;;;;5061881;28;20864;-86
2024/02/16 03:04:20;;;;;;;283.53;68.87;;;;;2.80;97103.00;;;;5068107;28;20430;-87
2024/02/16 03:10:54;;;;;;;286.87;73.13;;;;;2.20;97095.00;;;;5058081;28;20956;-88
2024/02/16 03:13:44;;;;;;;280.90;70.30;;;;;1.90;97098.00;;;;5064801;28;20424;-87
2024/02/16 03:16:34;;;;;;;275.00;70.00;;;;;2.10;97107.00;;;;5063695;28;20431;-87
2024/02/16 03:19:23;;;;;;;273.00;69.43;;;;;2.50;97104.00;;;;5063578;28;20419;-87
2024/02/16 03:22:12;;;;;;;274.77;70.57;;;;;2.70;97113.00;;;;5065755;28;20542;-87
2024/02/16 03:25:01;;;;;;;289.57;75.33;;;;;2.40;97111.00;;;;5065634;28;20441;-87
2024/02/16 03:27:51;;;;;;;277.63;69.87;;;;;2.30;97100.00;;;;5062584;28;20431;-86
2024/02/16 03:30:41;;;;;;;264.23;68.97;;;;;2.80;97103.00;;;;5068284;28;20438;-86
2024/02/16 03:33:31;;;;;;;280.10;70.93;;;;;2.50;97105.00;;;;5067580;28;20441;-87
2024/02/16 03:36:20;;;;;;;276.00;68.53;;;;;2.70;97111.00;;;;5062685;28;20467;-86
2024/02/16 03:39:09;;;;;;;292.37;76.93;;;;;2.80;97109.00;;;;5067465;28;20435;-86
2024/02/16 03:41:59;;;;;;;286.03;73.47;;;;;2.80;97109.00;;;;5065065;28;21011;-86
2024/02/16 03:44:48;;;;;;;277.60;68.97;;;;;2.80;97116.00;;;;5064017;28;20439;-86
2024/02/16 03:47:41;;;;;;;283.23;69.60;;;;;2.60;97110.00;;;;5062676;28;20410;-87
2024/02/16 03:50:30;;;;;;;279.93;69.17;;;;;2.50;97116.00;;;;5062780;28;20426;-87
2024/02/16 03:53:19;;;;;;;285.10;70.30;;;;;2.40;97108.00;;;;5068065;28;20447;-87
2024/02/16 03:56:08;;;;;;;289.00;73.53;;;;;2.50;97120.00;;;;5064818;28;20422;-86
2024/02/16 03:58:58;;;;;;;293.23;74.13;;;;;2.60;97123.00;;;;5065596;28;20472;-88
2024/02/16 04:01:47;;;;;;;290.73;71.63;;;;;2.70;97128.00;;;;5060107;28;20642;-87
2024/02/16 04:04:38;;;;;;;293.83;71.93;;;;;2.70;97133.00;;;;5064709;28;20423;-86
2024/02/16 04:07:27;;;;;;;308.20;69.10;;;;;2.70;97123.00;;;;5064170;28;20449;-86
2024/02/16 04:10:16;;;;;;;317.93;86.13;;;;;2.90;97124.00;;;;5063128;28;20416;-87
2024/02/16 04:13:05;;;;;;;296.80;73.13;;;;;2.70;97134.00;;;;5061480;28;20446;-87
2024/02/16 04:15:55;;;;;;;296.00;70.63;;;;;2.80;97130.00;;;;5059683;28;20809;-87
2024/02/16 04:18:44;;;;;;;295.47;71.47;;;;;2.90;97130.00;;;;5060376;28;20463;-87
2024/02/16 04:21:34;;;;;;;295.43;69.77;;;;;2.60;97128.00;;;;5062387;28;20438;-86
2024/02/16 04:24:24;;;;;;;305.17;70.70;;;;;2.50;97135.00;;;;5061022;28;20422;-87
2024/02/16 04:27:13;;;;;;;314.20;67.63;;;;;1.80;97122.00;;;;5064856;28;20419;-87
2024/02/16 04:30:02;;;;;;;323.90;73.07;;;;;1.40;97127.00;;;;5059598;28;20477;-89
2024/02/16 04:32:51;;;;;;;314.73;69.50;;;;;1.70;97119.00;;;;5063422;28;20446;-87
2024/02/16 04:35:41;;;;;;;310.40;65.77;;;;;2.20;97125.00;;;;5062084;28;20430;-88
2024/02/16 04:38:31;;;;;;;315.40;70.50;;;;;2.40;97107.00;;;;5063578;28;20469;-88
2024/02/16 04:41:21;;;;;;;315.07;69.03;;;;;2.10;97125.00;;;;5067738;28;20442;-87
2024/02/16 04:44:11;;;;;;;323.33;74.60;;;;;1.70;97115.00;;;;5066785;28;20437;-88
2024/02/16 04:47:00;;;;;;;320.50;71.30;;;;;1.80;97112.00;;;;5062817;28;20443;-88
2024/02/16 04:49:49;;;;;;;310.43;66.50;;;;;2.00;97122.00;;;;5061044;28;21039;-87
2024/02/16 04:52:40;;;;;;;314.47;68.87;;;;;2.50;97130.00;;;;5064823;28;20450;-88
2024/02/16 04:55:31;;;;;;;306.67;64.73;;;;;2.50;97122.00;;;;5061010;28;20426;-87
2024/02/16 04:58:20;;;;;;;320.10;73.40;;;;;2.60;97115.00;;;;5067735;28;20827;-86
2024/02/16 05:01:09;;;;;;;321.33;73.47;;;;;2.70;97118.00;;;;5065961;28;20419;-87
2024/02/16 05:04:01;;;;;;;327.43;76.10;;;;;2.40;97121.00;;;;5064433;28;20866;-89
2024/02/16 05:06:52;;;;;;;312.07;68.03;;;;;2.30;97123.00;;;;5083533;28;20443;-89
2024/02/16 05:09:43;;;;;;;312.43;66.23;;;;;1.70;97120.00;;;;5087483;28;20451;-89
2024/02/16 05:12:34;;;;;;;316.33;68.80;;;;;1.80;97117.00;;;;5080314;28;20455;-86
2024/02/16 05:15:23;;;;;;;317.07;71.00;;;;;2.20;97132.00;;;;5080140;28;20438;-87
2024/02/16 05:18:12;;;;;;;319.30;71.10;;;;;2.40;97128.00;;;;5071496;28;20461;-87
2024/02/16 05:21:02;;;;;;;315.20;69.23;;;;;2.20;97121.00;;;;5067801;28;20435;-87
2024/02/16 05:23:51;;;;;;;316.73;70.73;;;;;2.20;97128.00;;;;5078066;28;20427;-87
2024/02/16 05:26:40;;;;;;;239.20;64.83;;;;;2.30;97118.00;;;;5073027;28;20441;-86
2024/02/16 05:29:30;;;;;;;292.30;70.63;;;;;2.30;97120.00;;;;5072333;28;20422;-89
2024/02/16 05:32:20;;;;;;;316.57;70.70;;;;;1.80;97117.00;;;;5065395;28;20462;-86
2024/02/16 05:35:12;;;;;;;324.03;73.93;;;;;1.70;97119.00;;;;5077475;28;20435;-88
2024/02/16 05:38:07;;;;;;;323.43;74.43;;;;;1.90;97125.00;;;;5069838;28;20478;-88
2024/02/16 05:40:56;;;;;;;321.27;72.67;;;;;2.30;97125.00;;;;5068249;28;20431;-87
2024/02/16 05:43:46;;;;;;;320.70;72.87;;;;;2.50;97131.00;;;;5069843;28;20439;-87
2024/02/16 05:46:37;;;;;;;322.03;74.40;;;;;2.30;97128.00;;;;5072515;28;20422;-87
2024/02/16 05:49:27;;;;;;;316.10;70.43;;;;;1.80;97119.00;;;;5066920;28;20438;-87
2024/02/16 05:52:18;;;;;;;313.00;71.80;;;;;1.50;97120.00;;;;5088789;28;20435;-88
2024/02/16 05:55:09;;;;;;;326.90;89.87;;;;;1.80;97128.00;;;;5073234;28;20434;-87
2024/02/16 05:57:58;;;;;;;303.97;73.00;;;;;2.10;97137.00;;;;5069262;28;20445;-87
2024/02/16 06:00:48;;;;;;;300.27;66.33;;;;;2.30;97140.00;;;;5070262;28;20438;-88
2024/02/16 06:03:38;;;;;;;300.27;70.27;;;;;2.20;97138.00;;;;5069321;28;20438;-86
2024/02/16 06:06:28;;;;;;;306.00;72.33;;;;;2.00;97148.00;;;;5065107;28;20437;-88
2024/02/16 06:09:17;;;;;;;306.37;72.47;;;;;2.00;97136.00;;;;5079259;28;20422;-89
2024/02/16 06:12:09;;;;;;;320.50;78.90;;;;;2.20;97153.00;;;;5070758;28;20497;-88
2024/02/16 06:14:59;;;;;;;309.90;74.60;;;;;1.80;97152.00;;;;5070566;28;20434;-86
2024/02/16 06:17:50;;;;;;;309.43;74.00;;;;;1.90;97147.00;;;;5072379;28;20452;-88
2024/02/16 06:20:41;;;;;;;303.90;68.97;;;;;1.90;97155.00;;;;5073649;28;20426;-88
2024/02/16 06:23:30;;;;;;;315.47;75.10;;;;;1.70;97147.00;;;;5077289;28;20426;-88
2024/02/16 06:26:20;;;;;;;308.23;71.37;;;;;1.80;97155.00;;;;5075504;28;20427;-87
2024/02/16 06:29:09;;;;;;;317.67;75.03;;;;;1.50;97153.00;;;;5064235;28;20463;-86
2024/02/16 06:31:58;;;;;;;309.90;74.80;;;;;1.40;97163.00;;;;5066458;28;20455;-87
2024/02/16 06:34:48;;;;;;;300.03;70.00;;;;;1.50;97156.00;;;;5070478;28;20936;-89
2024/02/16 06:37:39;;;;;;;299.00;67.23;;;;;2.40;97168.00;;;;5087749;28;20448;-89
2024/02/16 06:40:29;;;;;;;298.37;67.90;;;;;1.70;97168.00;;;;5069939;28;20434;-89
2024/02/16 06:43:18;;;;;;;314.37;74.60;;;;;2.00;97172.00;;;;5076243;28;20960;-87
2024/02/16 06:46:07;;;;;;;313.03;76.23;;;;;2.40;97171.00;;;;5072706;28;20477;-86
2024/02/16 06:48:57;;;;;;;307.37;70.70;;;;;2.60;97181.00;;;;5069452;28;20470;-87
2024/02/16 06:51:46;;;;;;;310.53;71.13;;;;;2.70;97169.00;;;;5070250;28;20575;-87
2024/02/16 06:54:37;;;;;;;311.73;70.00;;;;;2.90;97183.00;;;;5062848;28;20831;-87
2024/02/16 06:57:26;;;;;;;386.57;126.23;;;;;2.90;97183.00;;;;5041076;28;20516;-88
2024/02/16 07:00:16;;;;;;;327.83;77.40;;;;;2.70;97181.00;;;;5006984;28;20551;-90
2024/02/16 07:03:06;;;;;;;404.53;147.13;;;;;2.60;97184.00;;;;5017142;28;20459;-88
2024/02/16 07:05:55;;;;;;;331.57;79.00;;;;;2.50;97188.00;;;;5009033;28;20545;-90
2024/02/16 07:08:45;;;;;;;397.20;140.47;;;;;2.20;97190.00;;;;5026415;28;20431;-89
2024/02/16 07:11:35;;;;;;;375.47;113.13;;;;;1.70;97181.00;;;;5021256;28;21055;-88
2024/02/16 07:14:25;;;;;;;416.07;156.03;;;;;1.90;97183.00;;;;5018350;28;20447;-88
2024/02/16 07:17:15;;;;;;;337.27;86.90;;;;;2.10;97193.00;;;;5011587;28;21962;-89
2024/02/16 07:20:04;;;;;;;287.00;74.47;;;;;1.80;97187.00;;;;5058924;28;20478;-86
2024/02/16 07:22:53;;;;;;;201.27;64.10;;;;;2.10;97185.00;;;;5061555;28;20462;-88
2024/02/16 07:25:43;;;;;;;89.90;50.67;;;;;2.20;97183.00;;;;5063262;28;20430;-87
2024/02/16 07:28:33;;;;;;;225.97;134.13;;;;;2.50;97183.00;;;;5046657;28;20828;-89
2024/02/16 07:31:22;;;;;;;299.60;183.87;;;;;2.40;97183.00;;;;5004921;28;20599;-89
2024/02/16 07:34:12;;;;;;;108.30;56.37;;;;;2.40;97174.00;;;;5063864;28;20430;-86
2024/02/16 07:37:01;;;;;;;92.37;53.33;;;;;2.70;97183.00;;;;5065665;28;20428;-88
2024/02/16 07:39:51;;;;;;;87.40;51.47;;;;;2.20;97174.00;;;;5066696;28;20975;-87
2024/02/16 07:42:42;;;;;;;76.03;46.77;;;;;2.20;97177.00;;;;5067576;28;20458;-86
2024/02/16 07:45:33;;;;;;;68.47;45.00;;;;;2.50;97186.00;;;;5065584;28;20479;-87
2024/02/16 07:48:22;;;;;;;83.63;74.77;;;;;3.00;97180.00;;;;5071221;28;20437;-88
2024/02/16 07:51:11;;;;;;;84.87;51.57;;;;;3.10;97170.00;;;;5062138;28;20411;-88
2024/02/16 07:54:01;;;;;;;83.60;50.80;;;;;3.40;97185.00;;;;5067187;28;20503;-87
2024/02/16 07:56:50;;;;;;;73.87;48.50;;;;;3.60;97178.00;;;;5064846;28;20483;-87
2024/02/16 07:59:40;;;;;;;65.10;45.13;;;;;3.70;97186.00;;;;5063345;28;20465;-88
2024/02/16 08:02:31;;;;;;;68.07;46.40;;;;;3.60;97177.00;;;;5064683;28;20438;-88
2024/02/16 08:05:22;;;;;;;64.67;44.00;;;;;3.70;97184.00;;;;5066514;28;20801;-88
2024/02/16 08:08:11;;;;;;;72.93;50.33;;;;;3.80;97186.00;;;;5060865;28;20556;-88
2024/02/16 08:11:00;;;;;;;63.03;45.73;;;;;3.80;97173.00;;;;5063159;28;20426;-88
2024/02/16 08:13:49;;;;;;;72.23;49.73;;;;;3.90;97183.00;;;;5061170;28;20950;-89
2024/02/16 08:16:39;;;;;;;72.87;48.83;;;;;4.50;97178.00;;;;5061206;28;20448;-88
2024/02/16 08:19:35;;;;;;;76.50;52.63;;;;;4.80;97186.00;;;;5059321;28;20463;-88
2024/02/16 08:22:24;;;;;;;75.97;50.97;;;;;4.80;97190.00;;;;5064212;28;20434;-88
2024/02/16 08:25:13;;;;;;;88.07;55.90;;;;;5.10;97182.00;;;;5064311;28;20650;-88
2024/02/16 08:28:02;;;;;;;88.23;56.63;;;;;5.20;97179.00;;;;5061546;28;20442;-88
2024/02/16 08:30:52;;;;;;;81.67;53.33;;;;;5.80;97177.00;;;;5059457;28;20435;-88
2024/02/16 08:33:41;;;;;;;101.83;63.80;;;;;6.00;97194.00;;;;5058880;28;20449;-88
2024/02/16 08:36:32;;;;;;;86.97;55.43;;;;;6.10;97183.00;;;;5067513;28;20426;-86
2024/02/16 08:39:24;;;;;;;88.87;57.47;;;;;6.20;97198.00;;;;5067349;28;20980;-86
2024/02/16 08:42:14;;;;;;;88.67;58.67;;;;;6.20;97195.00;;;;5072107;28;20228;-87
2024/02/16 08:45:03;;;;;;;89.70;57.67;;;;;6.40;97178.00;;;;5073560;28;20200;-86
2024/02/16 08:47:52;;;;;;;83.80;56.57;;;;;6.70;97194.00;;;;5061840;28;20208;-87
2024/02/16 08:50:41;;;;;;;88.10;58.70;;;;;6.30;97190.00;;;;5065305;28;20196;-86
2024/02/16 08:53:32;;;;;;;90.13;61.27;;;;;6.60;97187.00;;;;5062993;28;20204;-87
2024/02/16 08:56:21;;;;;;;82.37;56.57;;;;;7.30;97190.00;;;;5070764;28;20218;-86
2024/02/16 08:59:10;;;;;;;103.97;70.00;;;;;7.90;97195.00;;;;5072727;28;20207;-87
2024/02/16 09:01:59;;;;;;;96.83;66.93;;;;;8.10;97190.00;;;;5071959;28;20230;-86
2024/02/16 09:04:48;;;;;;;86.90;61.97;;;;;8.50;97192.00;;;;5067235;28;20204;-87
2024/02/16 09:07:38;;;;;;;110.63;77.60;;;;;8.90;97200.00;;;;5056488;28;20200;-88
2024/02/16 09:10:28;;;;;;;103.77;68.17;;;;;9.20;97199.00;;;;5068984;28;20196;-87
2024/02/16 09:13:18;;;;;;;105.50;74.83;;;;;9.50;97197.00;;;;5066496;28;20231;-87
2024/02/16 09:16:12;;;;;;;110.27;74.40;;;;;9.60;97206.00;;;;5065306;28;20201;-87
2024/02/16 09:19:02;;;;;;;122.77;79.83;;;;;9.80;97206.00;;;;5063460;28;20212;-86
2024/02/16 09:21:54;;;;;;;108.87;74.60;;;;;10.00;97196.00;;;;5068455;28;20228;-87
2024/02/16 09:24:46;;;;;;;102.33;71.60;;;;;10.20;97205.00;;;;5067133;28;20200;-87
2024/02/16 09:27:40;;;;;;;119.37;78.00;;;;;10.40;97204.00;;;;5069480;28;20565;-87
2024/02/16 09:30:29;;;;;;;114.60;77.47;;;;;10.70;97204.00;;;;5068969;28;20208;-87
2024/02/16 09:33:18;;;;;;;121.67;83.63;;;;;10.80;97205.00;;;;5067706;28;20224;-87
2024/02/16 09:36:08;;;;;;;128.73;86.70;;;;;11.20;97210.00;;;;5070351;28;20204;-86
2024/02/16 09:38:57;;;;;;;121.33;81.73;;;;;11.50;97209.00;;;;5070102;28;20197;-87
2024/02/16 09:41:51;;;;;;;132.20;89.13;;;;;11.40;97208.00;;;;5066006;28;20237;-87
2024/02/16 09:44:43;;;;;;;121.37;85.43;;;;;11.60;97217.00;;;;5070112;28;20202;-87
2024/02/16 09:47:34;;;;;;;120.17;84.53;;;;;11.90;97208.00;;;;5067510;28;20582;-87
2024/02/16 09:50:23;;;;;;;122.87;87.40;;;;;11.60;97195.00;;;;5068431;28;20196;-86
2024/02/16 09:53:13;;;;;;;133.90;94.97;;;;;12.20;97202.00;;;;5068648;28;20223;-87
2024/02/16 09:56:02;;;;;;;131.77;91.50;;;;;12.50;97203.00;;;;5067189;28;20701;-87
2024/02/16 09:58:52;;;;;;;133.07;95.50;;;;;12.90;97202.00;;;;5071604;28;20211;-87
2024/02/16 10:01:43;;;;;;;136.83;98.03;;;;;13.00;97215.00;;;;5066907;28;20724;-87
2024/02/16 10:04:32;;;;;;;137.77;97.07;;;;;13.10;97210.00;;;;5066437;28;20200;-87
2024/02/16 10:07:33;;;;;;;149.50;107.67;;;;;13.60;97203.00;;;;5070832;28;20200;-87
2024/02/16 10:10:23;;;;;;;146.97;102.30;;;;;13.70;97213.00;;;;5064428;28;20208;-87
2024/02/16 10:13:12;;;;;;;159.47;109.93;;;;;14.00;97207.00;;;;5068948;28;20223;-87
2024/02/16 10:16:08;;;;;;;158.07;109.23;;;;;14.20;97205.00;;;;5071428;28;20208;-87
2024/02/16 10:19:06;;;;;;;152.67;112.03;;;;;14.10;97205.00;;;;5067804;28;20289;-87
2024/02/16 10:21:55;;;;;;;142.87;107.93;;;;;14.40;97200.00;;;;5060363;28;20256;-87
2024/02/16 10:24:44;;;;;;;153.50;115.23;;;;;14.70;97203.00;;;;5066956;28;20204;-87
2024/02/16 10:27:34;;;;;;;153.73;115.67;;;;;15.00;97204.00;;;;5065873;28;20380;-87
2024/02/16 10:30:24;;;;;;;144.10;111.70;;;;;14.90;97201.00;;;;5070772;28;20207;-87
2024/02/16 10:33:14;;;;;;;160.37;124.63;;;;;15.30;97193.00;;;;5070004;28;20224;-87
2024/02/16 10:36:07;;;;;;;159.73;126.80;;;;;15.40;97189.00;;;;5070630;28;20227;-87
2024/02/16 10:38:57;;;;;;;154.80;122.77;;;;;15.80;97184.00;;;;5069652;28;20673;-87
2024/02/16 10:41:47;;;;;;;164.20;127.93;;;;;16.00;97184.00;;;;5067770;28;20224;-88
2024/02/16 10:44:38;;;;;;;177.37;132.90;;;;;16.40;97187.00;;;;5066628;28;20586;-87
2024/02/16 10:47:27;;;;;;;191.40;141.00;;;;;16.90;97185.00;;;;5065430;28;20196;-87
2024/02/16 10:50:16;;;;;;;209.27;158.10;;;;;17.40;97180.00;;;;5068935;28;20208;-88
2024/02/16 10:53:12;;;;;;;234.47;183.30;;;;;18.00;97175.00;;;;5064850;28;20224;-88
2024/02/16 10:56:02;;;;;;;240.03;193.33;;;;;18.30;97182.00;;;;5066596;28;20200;-88
2024/02/16 10:58:51;;;;;;;247.53;200.33;;;;;18.70;97171.00;;;;5068659;28;20204;-88
2024/02/16 11:01:42;;;;;;;268.67;221.33;;;;;18.60;97164.00;;;;5069033;28;20232;-87
2024/02/16 11:04:39;;;;;;;275.30;234.70;;;;;19.30;97165.00;;;;5065199;28;20196;-88
2024/02/16 11:07:28;;;;;;;287.03;248.90;;;;;19.00;97162.00;;;;5068987;28;20207;-87
2024/02/16 11:10:19;;;;;;;291.53;255.57;;;;;19.10;97172.00;;;;5069095;28;20573;-87
2024/02/16 11:13:09;;;;;;;303.30;265.83;;;;;19.80;97161.00;;;;5060240;28;20220;-88
2024/02/16 11:16:02;;;;;;;304.40;271.33;;;;;20.10;97148.00;;;;5068707;28;20851;-87
2024/02/16 11:18:52;;;;;;;327.20;292.40;;;;;18.70;97142.00;;;;5064172;28;20210;-87
2024/02/16 11:21:57;;;;;;;328.87;292.93;;;;;19.20;97145.00;;;;5062106;28;20243;-87
2024/02/16 11:24:47;;;;;;;341.30;305.17;;;;;20.10;97154.00;;;;5064608;28;20669;-87
2024/02/16 11:27:38;;;;;;;343.63;307.10;;;;;20.10;97150.00;;;;5065502;28;20333;-87
2024/02/16 11:30:27;;;;;;;352.93;315.87;;;;;20.60;97139.00;;;;5067173;28;20215;-87
2024/02/16 11:33:16;;;;;;;363.87;325.97;;;;;19.40;97129.00;;;;5062094;28;20223;-87
2024/02/16 11:36:08;;;;;;;364.90;327.90;;;;;18.40;97126.00;;;;5060439;28;20289;-86
2024/02/16 11:39:16;;;;;;;374.40;335.40;;;;;19.50;97131.00;;;;5068129;27;20679;-70
2024/02/16 11:42:06;;;;;;;355.93;319.97;;;;;20.10;97125.00;;;;5060391;28;20290;-71
2024/02/16 11:44:56;;;;;;;354.60;318.30;;;;;21.30;97128.00;;;;5063393;28;20231;-70
2024/02/16 11:47:45;;;;;;;371.40;333.03;;;;;20.20;97124.00;;;;5066396;28;20281;-71
2024/02/16 11:50:34;;;;;;;369.00;331.20;;;;;19.20;97113.00;;;;5063058;28;20724;-70
2024/02/16 11:53:24;;;;;;;378.63;340.43;;;;;19.80;97116.00;;;;5063695;28;20204;-70
2024/02/16 11:56:24;;;;;;;378.23;340.47;;;;;18.70;97113.00;;;;5065699;28;20200;-70
2024/02/16 11:59:14;;;;;;;384.67;345.07;;;;;20.00;97117.00;;;;5062213;28;20266;-70
2024/02/16 12:02:04;;;;;;;370.40;332.20;;;;;20.80;97118.00;;;;5062126;28;20226;-70
2024/02/16 12:04:59;;;;;;;374.63;335.63;;;;;21.30;97115.00;;;;5061840;28;20204;-70
2024/02/16 12:07:50;;;;;;;384.93;344.83;;;;;21.50;97112.00;;;;5063897;28;20208;-70
2024/02/16 12:10:39;;;;;;;391.00;349.70;;;;;22.10;97111.00;;;;5063868;28;20617;-70
2024/02/16 12:13:30;;;;;;;407.43;363.83;;;;;22.80;97115.00;;;;5063963;28;20199;-70
2024/02/16 12:16:21;;;;;;;424.70;378.87;;;;;22.90;97113.00;;;;5063174;28;21648;-70
2024/02/16 12:19:10;;;;;;;456.30;406.87;;;;;23.60;97111.00;;;;5061781;28;20223;-70
2024/02/16 12:22:00;;;;;;;455.10;407.83;;;;;23.80;97114.00;;;;5065097;28;20207;-71
2024/02/16 12:24:50;;;;;;;473.80;424.67;;;;;24.30;97113.00;;;;5063023;28;20201;-70
2024/02/16 12:27:39;;;;;;;489.13;440.53;;;;;24.20;97113.00;;;;5080559;28;20209;-70
2024/02/16 12:30:29;;;;;;;514.13;463.07;;;;;24.80;97117.00;;;;5084013;28;20280;-70
2024/02/16 12:33:18;;;;;;;527.93;476.40;;;;;24.40;97109.00;;;;5084719;28;20206;-70
2024/02/16 12:36:08;;;;;;;549.63;497.83;;;;;21.80;97099.00;;;;5080008;28;20200;-70
2024/02/16 12:38:57;;;;;;;532.00;482.07;;;;;20.20;97092.00;;;;5083487;28;20605;-71
2024/02/16 12:41:48;;;;;;;516.37;466.03;;;;;20.10;97104.00;;;;5098258;28;20573;-71
2024/02/16 12:44:37;;;;;;;492.83;443.67;;;;;22.40;97105.00;;;;5094686;28;20220;-70
2024/02/16 12:47:28;;;;;;;487.87;438.40;;;;;23.20;97104.00;;;;5080839;28;20220;-70
2024/02/16 12:50:18;;;;;;;492.73;443.20;;;;;23.80;97096.00;;;;5068898;28;20776;-70
2024/02/16 12:53:07;;;;;;;511.87;461.70;;;;;24.50;97110.00;;;;5067335;28;20213;-71
2024/02/16 12:55:56;;;;;;;518.30;468.50;;;;;22.40;97094.00;;;;5069781;28;20227;-69
2024/02/16 12:58:45;;;;;;;507.10;457.97;;;;;21.40;97087.00;;;;5069206;28;20233;-69
2024/02/16 13:01:34;;;;;;;508.73;460.10;;;;;23.50;97096.00;;;;5068981;28;20752;-71
2024/02/16 13:04:25;;;;;;;510.30;461.20;;;;;24.20;97093.00;;;;5088084;28;20251;-70
2024/02/16 13:07:14;;;;;;;520.83;470.57;;;;;23.90;97082.00;;;;5087993;28;20212;-70
2024/02/16 13:10:03;;;;;;;521.50;471.50;;;;;24.40;97083.00;;;;5082752;28;20198;-71
2024/02/16 13:12:53;;;;;;;526.30;476.60;;;;;23.20;97077.00;;;;5088364;28;20205;-71
2024/02/16 13:15:42;;;;;;;524.00;474.57;;;;;20.70;97073.00;;;;5087533;28;20208;-70
2024/02/16 13:18:31;;;;;;;516.63;466.60;;;;;20.70;97073.00;;;;5087447;28;20236;-70
2024/02/16 13:21:21;;;;;;;444.57;398.03;;;;;23.10;97075.00;;;;5085766;28;20206;-70
2024/02/16 13:24:10;;;;;;;423.30;377.70;;;;;24.50;97087.00;;;;5086304;28;20208;-69
2024/02/16 13:27:00;;;;;;;385.83;339.33;;;;;25.10;97084.00;;;;5087475;28;20831;-70
2024/02/16 13:29:49;;;;;;;444.43;396.43;;;;;26.40;97081.00;;;;5084081;28;20196;-70
2024/02/16 13:32:39;;;;;;;447.23;401.83;;;;;24.50;97076.00;;;;5088015;28;20210;-72
2024/02/16 13:35:29;;;;;;;561.70;511.23;;;;;23.90;97079.00;;;;5088749;28;20203;-70
2024/02/16 13:38:21;;;;;;;592.23;540.00;;;;;25.80;97086.00;;;;5086524;28;20223;-71
2024/02/16 13:41:11;;;;;;;590.03;538.23;;;;;25.70;97098.00;;;;5086699;28;20209;-70
2024/02/16 13:44:00;;;;;;;597.63;545.53;;;;;24.90;97095.00;;;;5087745;28;20228;-70
2024/02/16 13:46:49;;;;;;;583.83;532.97;;;;;22.80;97090.00;;;;5086770;28;20210;-69